createdAt,value
2022-09-16T00:01:29.701Z,100770.91
2022-09-16T00:03:58.439Z,100763.00
2022-09-16T00:06:29.315Z,100773.53
2022-09-16T00:09:02.539Z,100781.47
2022-09-16T00:11:37.054Z,100768.25
2022-09-16T00:14:05.475Z,100788.47
2022-09-16T00:16:34.005Z,100784.97
2022-09-16T00:19:03.355Z,100787.59
2022-09-16T00:21:32.080Z,100792.88
2022-09-16T00:24:00.549Z,100803.41
2022-09-16T00:26:29.912Z,100806.06
2022-09-16T00:28:58.690Z,100801.66
2022-09-16T00:31:27.554Z,100800.81
2022-09-16T00:33:56.310Z,100785.84
2022-09-16T00:36:24.751Z,100790.22
2022-09-16T00:38:57.461Z,100777.94
2022-09-16T00:41:28.329Z,100786.72
2022-09-16T00:44:02.297Z,100778.81
2022-09-16T00:46:49.670Z,100777.03
2022-09-16T00:49:26.965Z,100774.44
2022-09-16T00:52:00.118Z,100777.06
2022-09-16T00:54:29.658Z,100777.94
2022-09-16T00:57:00.775Z,100772.66
2022-09-16T00:59:35.931Z,100773.53
2022-09-16T01:02:09.353Z,100768.25
2022-09-16T01:04:53.193Z,100770.00
2022-09-16T01:07:29.932Z,100775.28
2022-09-16T01:09:58.920Z,100771.75
2022-09-16T01:12:31.199Z,100768.25
2022-09-16T01:15:02.011Z,100777.91
2022-09-16T01:17:50.015Z,100796.38
2022-09-16T01:20:24.235Z,100794.59
2022-09-16T01:23:10.502Z,100794.63
2022-09-16T01:25:41.770Z,100798.13
2022-09-16T01:28:37.737Z,100802.53
2022-09-16T01:31:19.674Z,100789.34
2022-09-16T01:34:32.243Z,100777.91
2022-09-16T01:37:13.433Z,100773.50
2022-09-16T01:40:08.256Z,100784.06
2022-09-16T01:42:36.551Z,100783.19
2022-09-16T01:45:22.902Z,100779.69
2022-09-16T01:48:25.425Z,100769.16
2022-09-16T01:51:06.000Z,100767.38
2022-09-16T01:53:34.685Z,100764.75
2022-09-16T01:56:20.827Z,100770.03
2022-09-16T01:59:07.124Z,100763.84
2022-09-16T02:01:42.498Z,100772.66
2022-09-16T02:04:18.494Z,100784.06
2022-09-16T02:06:51.952Z,100791.13
2022-09-16T02:09:27.174Z,100771.78
2022-09-16T02:11:59.069Z,100775.31
2022-09-16T02:14:32.048Z,100776.16
2022-09-16T02:17:05.718Z,100771.78
2022-09-16T02:19:41.926Z,100772.66
2022-09-16T02:22:25.990Z,100771.75
2022-09-16T02:24:54.612Z,100777.94
2022-09-16T02:27:23.725Z,100770.00
2022-09-16T02:30:00.586Z,100770.91
2022-09-16T02:32:32.480Z,100781.44
2022-09-16T02:35:02.911Z,100777.03
2022-09-16T02:37:40.515Z,100777.91
2022-09-16T02:40:19.873Z,100767.34
2022-09-16T02:42:49.413Z,100769.09
2022-09-16T02:45:18.151Z,100765.59
2022-09-16T02:48:03.251Z,100762.94
2022-09-16T02:51:00.606Z,100758.56
2022-09-16T02:53:53.088Z,100769.09
2022-09-16T02:56:42.133Z,100764.69
2022-09-16T02:59:12.913Z,100772.59
2022-09-16T03:01:42.843Z,100770.84
2022-09-16T03:04:14.277Z,100769.09
2022-09-16T03:06:43.344Z,100771.72
2022-09-16T03:09:13.783Z,100765.53
2022-09-16T03:12:02.665Z,100768.19
2022-09-16T03:15:09.981Z,100760.22
2022-09-16T03:17:48.395Z,100754.06
2022-09-16T03:20:43.702Z,100763.72
2022-09-16T03:23:44.661Z,100772.50
2022-09-16T03:26:32.866Z,100776.03
2022-09-16T03:29:01.453Z,100777.81
2022-09-16T03:31:55.312Z,100774.31
2022-09-16T03:34:33.836Z,100769.06
2022-09-16T03:37:08.101Z,100768.16
2022-09-16T03:39:38.098Z,100769.06
2022-09-16T03:42:11.167Z,100762.91
2022-09-16T03:44:41.185Z,100763.78
2022-09-16T03:47:10.595Z,100753.25
2022-09-16T03:49:38.914Z,100746.19
2022-09-16T03:52:08.451Z,100757.63
2022-09-16T03:54:37.812Z,100759.31
2022-09-16T03:57:07.747Z,100751.41
2022-09-16T03:59:36.154Z,100754.91
2022-09-16T04:02:05.187Z,100754.03
2022-09-16T04:04:33.678Z,100757.50
2022-09-16T04:07:02.399Z,100757.53
2022-09-16T04:09:30.740Z,100744.31
2022-09-16T04:11:59.127Z,100751.34
2022-09-16T04:14:27.434Z,100756.59
2022-09-16T04:16:55.736Z,100753.09
2022-09-16T04:19:24.800Z,100746.94
2022-09-16T04:21:53.633Z,100744.31
2022-09-16T04:24:21.847Z,100740.78
2022-09-16T04:26:50.477Z,100738.16
2022-09-16T04:29:19.408Z,100746.94
2022-09-16T04:31:47.707Z,100734.59
2022-09-16T04:34:16.233Z,100744.25
2022-09-16T04:36:44.808Z,100743.38
2022-09-16T04:39:14.436Z,100732.84
2022-09-16T04:41:42.975Z,100743.38
2022-09-16T04:44:12.201Z,100737.22
2022-09-16T04:46:40.770Z,100731.97
2022-09-16T04:49:09.101Z,100730.22
2022-09-16T04:51:37.682Z,100733.72
2022-09-16T04:54:06.384Z,100748.63
2022-09-16T04:56:35.322Z,100750.34
2022-09-16T04:59:05.492Z,100757.38
2022-09-16T05:01:37.539Z,100753.88
2022-09-16T05:04:07.654Z,100751.28
2022-09-16T05:06:39.197Z,100756.53
2022-09-16T05:09:12.122Z,100748.66
2022-09-16T05:11:42.298Z,100741.66
2022-09-16T05:14:16.584Z,100739.91
2022-09-16T05:16:45.953Z,100749.53
2022-09-16T05:19:14.844Z,100732.00
2022-09-16T05:21:43.471Z,100736.41
2022-09-16T05:24:13.691Z,100732.00
2022-09-16T05:26:43.395Z,100749.56
2022-09-16T05:29:15.807Z,100782.91
2022-09-16T05:31:47.639Z,100770.63
2022-09-16T05:34:24.931Z,100765.38
2022-09-16T05:36:54.233Z,100775.97
2022-09-16T05:39:29.010Z,100774.22
2022-09-16T05:42:00.151Z,100762.81
2022-09-16T05:44:29.285Z,100755.88
2022-09-16T05:46:57.725Z,100751.50
2022-09-16T05:49:26.289Z,100758.53
2022-09-16T05:51:55.083Z,100748.88
2022-09-16T05:54:25.336Z,100753.25
2022-09-16T05:56:54.921Z,100755.03
2022-09-16T05:59:24.367Z,100766.44
2022-09-16T06:01:53.062Z,100755.94
2022-09-16T06:04:21.791Z,100747.16
2022-09-16T06:06:50.166Z,100748.03
2022-09-16T06:09:21.847Z,100747.16
2022-09-16T06:11:55.428Z,100741.88
2022-09-16T06:14:26.695Z,100740.13
2022-09-16T06:16:56.003Z,100737.50
2022-09-16T06:19:24.580Z,100734.88
2022-09-16T06:21:53.065Z,100733.13
2022-09-16T06:24:22.977Z,100732.22
2022-09-16T06:26:51.272Z,100730.47
2022-09-16T06:29:23.016Z,100741.03
2022-09-16T06:31:51.339Z,100725.19
2022-09-16T06:34:20.868Z,100730.47
2022-09-16T06:36:49.219Z,100734.88
2022-09-16T06:39:19.545Z,100731.34
2022-09-16T06:41:48.302Z,100734.00
2022-09-16T06:44:16.617Z,100726.09
2022-09-16T06:46:51.156Z,100727.84
2022-09-16T06:49:19.963Z,100733.13
2022-09-16T06:51:48.309Z,100726.06
2022-09-16T06:54:18.610Z,100734.84
2022-09-16T06:56:46.934Z,100721.59
2022-09-16T06:59:15.339Z,100723.31
2022-09-16T07:01:43.685Z,100719.72
2022-09-16T07:04:18.104Z,100718.78
2022-09-16T07:07:08.635Z,100719.56
2022-09-16T07:09:38.293Z,100714.13
2022-09-16T07:12:09.159Z,100716.66
2022-09-16T07:14:37.513Z,100723.53
2022-09-16T07:17:05.933Z,100729.50
2022-09-16T07:19:34.867Z,100752.28
2022-09-16T07:22:03.715Z,100747.84
2022-09-16T07:24:32.571Z,100732.00
2022-09-16T07:27:01.405Z,100738.25
2022-09-16T07:29:29.820Z,100741.88
2022-09-16T07:31:58.178Z,100733.13
2022-09-16T07:34:26.491Z,100740.22
2022-09-16T07:36:57.028Z,100730.47
2022-09-16T07:39:25.796Z,100734.53
2022-09-16T07:41:54.346Z,100726.09
2022-09-16T07:44:23.345Z,100722.22
2022-09-16T07:46:52.204Z,100732.34
2022-09-16T07:49:20.540Z,100732.72
2022-09-16T07:51:49.112Z,100722.41
2022-09-16T07:54:20.282Z,100725.22
2022-09-16T07:56:50.154Z,100735.09
2022-09-16T07:59:20.098Z,100733.31
2022-09-16T08:01:49.780Z,100729.88
2022-09-16T08:04:20.484Z,100735.34
2022-09-16T08:06:49.258Z,100728.41
2022-09-16T08:12:10.929Z,100736.03
2022-09-16T08:14:39.461Z,100739.56
2022-09-16T08:17:11.749Z,100732.16
2022-09-16T08:19:42.034Z,100735.28
2022-09-16T08:22:10.343Z,100727.97
2022-09-16T08:24:38.859Z,100723.50
2022-09-16T08:27:07.955Z,100729.00
2022-09-16T08:29:37.279Z,100726.50
2022-09-16T08:32:05.747Z,100736.22
2022-09-16T08:34:38.680Z,100739.00
2022-09-16T08:37:07.013Z,100738.41
2022-09-16T08:39:38.013Z,100726.66
2022-09-16T08:42:44.064Z,100729.19
2022-09-16T08:45:23.612Z,100732.53
2022-09-16T08:48:14.146Z,100722.06
2022-09-16T08:50:47.183Z,100737.47
2022-09-16T08:53:26.160Z,100746.13
2022-09-16T08:55:54.794Z,100755.13
2022-09-16T08:58:30.804Z,100750.44
2022-09-16T09:01:15.496Z,100746.41
2022-09-16T09:03:46.962Z,100762.09
2022-09-16T09:06:42.237Z,100760.31
2022-09-16T09:09:35.588Z,100762.13
2022-09-16T09:12:23.875Z,100760.06
2022-09-16T09:15:14.091Z,100763.19
2022-09-16T09:17:54.651Z,100760.88
2022-09-16T09:20:48.149Z,100753.81
2022-09-16T09:23:44.990Z,100751.97
2022-09-16T09:26:27.162Z,100755.44
2022-09-16T09:29:35.985Z,100745.78
2022-09-16T09:32:22.837Z,100748.38
2022-09-16T09:35:21.558Z,100748.22
2022-09-16T09:37:57.812Z,100771.88
2022-09-16T09:40:39.280Z,100773.63
2022-09-16T09:43:41.282Z,100781.00
2022-09-16T09:46:30.159Z,100779.72
2022-09-16T09:49:23.802Z,100770.41
2022-09-16T09:52:08.144Z,100768.94
2022-09-16T09:54:39.014Z,100766.47
2022-09-16T09:57:47.227Z,100763.06
2022-09-16T10:00:18.981Z,100768.34
2022-09-16T10:02:50.043Z,100764.78
2022-09-16T10:05:24.717Z,100754.91
2022-09-16T10:07:57.929Z,100759.13
2022-09-16T10:10:34.420Z,100753.53
2022-09-16T10:13:16.974Z,100739.06
2022-09-16T10:15:51.960Z,100742.34
2022-09-16T10:18:29.111Z,100735.84
2022-09-16T10:21:01.192Z,100749.00
2022-09-16T10:23:34.472Z,100771.38
2022-09-16T10:26:20.535Z,100758.44
2022-09-16T10:28:57.745Z,100762.25
2022-09-16T10:31:34.468Z,100757.16
2022-09-16T10:34:05.850Z,100750.22
2022-09-16T10:36:35.707Z,100758.06
2022-09-16T10:39:05.687Z,100741.03
2022-09-16T10:41:44.755Z,100740.66
2022-09-16T10:44:33.874Z,100745.47
2022-09-16T10:47:15.574Z,100752.38
2022-09-16T10:49:49.562Z,100739.91
2022-09-16T10:52:21.906Z,100741.38
2022-09-16T10:54:52.610Z,100726.91
2022-09-16T10:57:31.373Z,100732.69
2022-09-16T11:00:11.481Z,100725.38
2022-09-16T11:03:04.783Z,100743.97
2022-09-16T11:05:46.563Z,100729.97
2022-09-16T11:08:36.201Z,100729.06
2022-09-16T11:11:34.222Z,100726.19
2022-09-16T11:14:19.840Z,100714.44
2022-09-16T11:17:11.170Z,100727.56
2022-09-16T11:20:24.190Z,100719.44
2022-09-16T11:23:26.759Z,100717.66
2022-09-16T11:26:10.598Z,100714.91
2022-09-16T11:28:50.843Z,100717.34
2022-09-16T11:31:42.616Z,100703.75
2022-09-16T11:34:31.168Z,100706.16
2022-09-16T11:37:36.122Z,100714.09
2022-09-16T11:40:09.802Z,100724.09
2022-09-16T11:43:10.544Z,100714.59
2022-09-16T11:45:59.777Z,100715.47
2022-09-16T11:48:53.154Z,100716.47
2022-09-16T11:51:52.112Z,100718.28
2022-09-16T11:54:35.434Z,100715.75
2022-09-16T11:57:13.176Z,100710.41
2022-09-16T12:00:02.428Z,100710.50
2022-09-16T12:02:45.737Z,100715.97
2022-09-16T12:05:28.017Z,100716.91
2022-09-16T12:08:29.043Z,100709.94
2022-09-16T12:11:09.893Z,100708.19
2022-09-16T12:13:40.554Z,100701.22
2022-09-16T12:16:14.566Z,100701.34
2022-09-16T12:18:55.303Z,100710.28
2022-09-16T12:21:43.217Z,100701.50
2022-09-16T12:24:39.328Z,100721.03
2022-09-16T12:27:44.939Z,100715.00
2022-09-16T12:30:16.349Z,100709.81
2022-09-16T12:33:06.675Z,100709.03
2022-09-16T12:36:00.087Z,100721.38
2022-09-16T12:38:28.580Z,100704.59
2022-09-16T12:41:11.246Z,100711.75
2022-09-16T12:44:17.146Z,100710.06
2022-09-16T12:47:39.298Z,100709.06
2022-09-16T12:50:38.804Z,100701.91
2022-09-16T12:53:30.693Z,100700.06
2022-09-16T12:56:24.255Z,100697.03
2022-09-16T12:59:17.757Z,100705.59
2022-09-16T13:02:20.490Z,100712.63
2022-09-16T13:04:53.836Z,100714.56
2022-09-16T13:07:26.268Z,100718.31
2022-09-16T13:10:20.877Z,100708.81
2022-09-16T13:12:54.495Z,100708.94
2022-09-16T13:15:37.591Z,100706.41
2022-09-16T13:18:15.143Z,100710.13
2022-09-16T13:21:00.130Z,100712.88
2022-09-16T13:23:35.625Z,100724.41
2022-09-16T13:26:09.823Z,100724.56
2022-09-16T13:28:41.698Z,100721.16
2022-09-16T13:31:15.269Z,100719.53
2022-09-16T13:34:14.194Z,100724.97
2022-09-16T13:36:42.654Z,100714.50
2022-09-16T13:39:13.546Z,100719.81
2022-09-16T13:41:44.689Z,100709.22
2022-09-16T13:44:38.545Z,100709.44
2022-09-16T13:47:09.850Z,100727.28
2022-09-16T13:49:44.542Z,100723.91
2022-09-16T13:52:27.087Z,100714.38
2022-09-16T13:55:12.882Z,100696.13
2022-09-16T13:57:58.687Z,100703.44
2022-09-16T14:00:47.338Z,100695.50
2022-09-16T14:03:42.393Z,100699.00
2022-09-16T14:06:37.634Z,100693.72
2022-09-16T14:09:28.845Z,100695.47
2022-09-16T14:12:15.537Z,100684.88
2022-09-16T14:14:47.309Z,100690.16
2022-09-16T14:17:32.167Z,100697.22
2022-09-16T14:20:01.645Z,100694.63
2022-09-16T14:22:32.334Z,100683.16
2022-09-16T14:25:06.850Z,100692.91
2022-09-16T14:27:41.290Z,100682.34
2022-09-16T14:30:21.555Z,100687.69
2022-09-16T14:32:51.234Z,100693.94
2022-09-16T14:35:27.224Z,100688.66
2022-09-16T14:38:02.022Z,100694.84
2022-09-16T14:40:33.048Z,100679.78
2022-09-16T14:43:08.495Z,100686.78
2022-09-16T14:45:38.206Z,100667.19
2022-09-16T14:48:10.235Z,100664.38
2022-09-16T14:50:43.685Z,100669.56
2022-09-16T14:53:38.259Z,100658.84
2022-09-16T14:56:20.190Z,100654.28
2022-09-16T14:58:49.811Z,100656.03
2022-09-16T15:01:25.797Z,100696.66
2022-09-16T15:04:16.451Z,100702.16
2022-09-16T15:06:52.851Z,100699.91
2022-09-16T15:09:43.464Z,100690.53
2022-09-16T15:12:25.593Z,100686.25
2022-09-16T15:14:58.109Z,100688.16
2022-09-16T15:17:28.320Z,100682.97
2022-09-16T15:20:00.154Z,100685.66
2022-09-16T15:22:28.630Z,100689.22
2022-09-16T15:24:59.773Z,100703.34
2022-09-16T15:27:32.174Z,100700.72
2022-09-16T15:30:05.403Z,100699.88
2022-09-16T15:32:43.943Z,100685.81
2022-09-16T15:35:30.616Z,100694.69
2022-09-16T15:38:12.204Z,100683.31
2022-09-16T15:40:41.392Z,100687.78
2022-09-16T15:43:14.670Z,100664.06
2022-09-16T15:45:45.539Z,100660.56
2022-09-16T15:48:20.906Z,100673.84
2022-09-16T15:50:54.520Z,100686.19
2022-09-16T15:53:45.690Z,100679.13
2022-09-16T15:56:29.635Z,100692.28
2022-09-16T15:59:04.407Z,100691.38
2022-09-16T16:01:52.971Z,100682.53
2022-09-16T16:04:29.889Z,100662.28
2022-09-16T16:07:08.610Z,100683.38
2022-09-16T16:09:40.546Z,100671.94
2022-09-16T16:12:19.591Z,100675.44
2022-09-16T16:14:47.897Z,100685.13
2022-09-16T16:17:19.983Z,100689.56
2022-09-16T16:19:50.723Z,100686.94
2022-09-16T16:22:20.837Z,100706.34
2022-09-16T16:24:49.515Z,100701.97
2022-09-16T16:27:17.870Z,100693.19
2022-09-16T16:29:47.714Z,100694.97
2022-09-16T16:32:16.716Z,100696.78
2022-09-16T16:34:50.128Z,100702.06
2022-09-16T16:37:44.342Z,100697.66
2022-09-16T16:40:09.133Z,100688.91
2022-09-16T16:42:37.566Z,100687.13
2022-09-16T16:45:06.723Z,100705.56
2022-09-16T16:47:35.915Z,100697.66
2022-09-16T16:50:04.605Z,100697.66
2022-09-16T16:52:35.030Z,100704.66
2022-09-16T16:55:03.694Z,100724.94
2022-09-16T16:57:32.069Z,100724.06
2022-09-16T17:00:00.495Z,100723.19
2022-09-16T17:02:30.189Z,100725.88
2022-09-16T17:04:59.598Z,100710.94
2022-09-16T17:07:29.097Z,100705.66
2022-09-16T17:09:58.822Z,100700.38
2022-09-16T17:12:27.938Z,100706.53
2022-09-16T17:14:56.278Z,100700.38
2022-09-16T17:17:30.528Z,100697.72
2022-09-16T17:19:59.948Z,100702.09
2022-09-16T17:22:29.184Z,100692.41
2022-09-16T17:24:57.574Z,100698.56
2022-09-16T17:27:27.900Z,100700.28
2022-09-16T17:30:00.996Z,100692.38
2022-09-16T17:32:31.627Z,100687.97
2022-09-16T17:34:59.929Z,100691.50
2022-09-16T17:37:28.416Z,100702.06
2022-09-16T17:39:58.209Z,100699.41
2022-09-16T17:42:27.841Z,100702.03
2022-09-16T17:44:56.106Z,100716.09
2022-09-16T17:47:24.444Z,100713.47
2022-09-16T17:49:53.035Z,100703.75
2022-09-16T17:52:21.762Z,100697.59
2022-09-16T17:54:50.086Z,100710.81
2022-09-16T17:57:20.264Z,100732.81
2022-09-16T17:59:48.807Z,100745.16
2022-09-16T18:02:17.159Z,100734.59
2022-09-16T18:04:45.629Z,100746.06
2022-09-16T18:07:14.531Z,100737.28
2022-09-16T18:09:42.863Z,100730.25
2022-09-16T18:12:11.231Z,100730.28
2022-09-16T18:14:41.019Z,100734.69
2022-09-16T18:17:09.571Z,100730.28
2022-09-16T18:19:38.335Z,100725.88
2022-09-16T18:22:06.616Z,100736.44
2022-09-16T18:24:34.947Z,100730.28
2022-09-16T18:27:03.242Z,100726.75
2022-09-16T18:29:33.003Z,100733.75
2022-09-16T18:32:01.714Z,100720.53
2022-09-16T18:34:33.597Z,100727.56
2022-09-16T18:37:02.737Z,100728.41
2022-09-16T18:39:33.695Z,100722.22
2022-09-16T18:42:02.094Z,100723.97
2022-09-16T18:44:32.463Z,100733.63
2022-09-16T18:47:01.498Z,100737.16
2022-09-16T18:49:32.520Z,100738.91
2022-09-16T18:52:00.826Z,100764.44
2022-09-16T18:54:29.886Z,100753.84
2022-09-16T18:57:02.234Z,100760.00
2022-09-16T18:59:32.558Z,100758.22
2022-09-16T19:02:04.042Z,100765.28
2022-09-16T19:04:37.526Z,100777.66
2022-09-16T19:07:09.779Z,100772.41
2022-09-16T19:09:39.922Z,100766.25
2022-09-16T19:12:15.396Z,100756.59
2022-09-16T19:14:43.819Z,100764.56
2022-09-16T19:17:12.241Z,100768.06
2022-09-16T19:19:41.002Z,100756.63
2022-09-16T19:22:10.024Z,100761.00
2022-09-16T19:24:38.496Z,100760.13
2022-09-16T19:27:06.763Z,100784.78
2022-09-16T19:29:35.289Z,100778.59
2022-09-16T19:32:03.798Z,100783.00
2022-09-16T19:34:32.147Z,100774.19
2022-09-16T19:37:00.828Z,100771.53
2022-09-16T19:39:29.181Z,100781.22
2022-09-16T19:42:03.119Z,100777.69
2022-09-16T19:44:31.490Z,100789.13
2022-09-16T19:46:59.953Z,100784.69
2022-09-16T19:49:28.882Z,100804.06
2022-09-16T19:51:58.311Z,100810.25
2022-09-16T19:54:26.619Z,100807.63
2022-09-16T19:56:55.116Z,100790.03
2022-09-16T19:59:23.702Z,100788.31
2022-09-16T20:01:52.323Z,100797.16
2022-09-16T20:04:21.073Z,100807.72
2022-09-16T20:06:50.246Z,100798.03
2022-09-16T20:09:19.949Z,100808.59
2022-09-16T20:11:49.037Z,100802.44
2022-09-16T20:14:20.426Z,100810.31
2022-09-16T20:16:50.690Z,100812.09
2022-09-16T20:19:20.402Z,100815.59
2022-09-16T20:21:49.103Z,100815.59
2022-09-16T20:24:20.962Z,100818.25
2022-09-16T20:26:51.306Z,100827.94
2022-09-16T20:29:20.762Z,100830.56
2022-09-16T20:31:52.720Z,100833.19
2022-09-16T20:34:24.381Z,100835.84
2022-09-16T20:36:55.263Z,100834.97
2022-09-16T20:39:23.479Z,100845.53
2022-09-16T20:41:52.716Z,100849.06
2022-09-16T20:44:21.308Z,100851.69
2022-09-16T20:46:50.218Z,100857.84
2022-09-16T20:49:20.271Z,100851.69
2022-09-16T20:51:50.164Z,100857.84
2022-09-16T20:54:18.902Z,100860.50
2022-09-16T20:56:48.181Z,100864.91
2022-09-16T20:59:19.911Z,100867.53
2022-09-16T21:01:49.252Z,100875.47
2022-09-16T21:04:20.036Z,100862.25
2022-09-16T21:06:48.698Z,100879.88
2022-09-16T21:09:19.082Z,100879.00
2022-09-16T21:11:48.663Z,100883.38
2022-09-16T21:14:17.759Z,100882.53
2022-09-16T21:16:46.230Z,100883.38
2022-09-16T21:19:15.279Z,100893.06
2022-09-16T21:21:47.644Z,100900.13
2022-09-16T21:24:16.528Z,100896.56
2022-09-16T21:26:46.034Z,100908.03
2022-09-16T21:29:20.983Z,100906.28
2022-09-16T21:31:49.354Z,100902.72
2022-09-16T21:34:20.156Z,100911.56
2022-09-16T21:36:48.944Z,100905.41
2022-09-16T21:39:20.447Z,100919.47
2022-09-16T21:41:49.022Z,100910.69
2022-09-16T21:44:18.515Z,100906.28
2022-09-16T21:46:47.815Z,100902.75
2022-09-16T21:49:24.163Z,100921.25
2022-09-16T21:51:54.685Z,100933.59
2022-09-16T21:54:24.469Z,100911.56
2022-09-16T21:56:52.978Z,100928.28
2022-09-16T21:59:21.408Z,100948.53
2022-09-16T22:01:51.838Z,100945.03
2022-09-16T22:04:23.646Z,100948.56
2022-09-16T22:06:55.096Z,100960.00
2022-09-16T22:09:23.589Z,100944.19
2022-09-16T22:11:52.687Z,100937.13
2022-09-16T22:14:21.125Z,100936.22
2022-09-16T22:16:49.489Z,100945.91
2022-09-16T22:19:19.010Z,100938.00
2022-09-16T22:21:49.778Z,100942.41
2022-09-16T22:24:20.709Z,100943.28
2022-09-16T22:26:50.048Z,100938.88
2022-09-16T22:29:18.789Z,100938.88
2022-09-16T22:31:47.328Z,100942.41
2022-09-16T22:34:15.730Z,100944.16
2022-09-16T22:36:44.560Z,100933.59
2022-09-16T22:39:16.042Z,100938.88
2022-09-16T22:41:44.490Z,100944.16
2022-09-16T22:44:13.764Z,100933.59
2022-09-16T22:46:47.277Z,100929.19
2022-09-16T22:49:16.445Z,100930.06
2022-09-16T22:51:45.677Z,100937.13
2022-09-16T22:54:14.750Z,100939.75
2022-09-16T22:56:44.008Z,100930.06
2022-09-16T22:59:21.430Z,100932.72
2022-09-16T23:01:49.986Z,100936.25
2022-09-16T23:04:18.861Z,100938.00
2022-09-16T23:06:47.822Z,100937.13
2022-09-16T23:09:16.151Z,100938.00
2022-09-16T23:11:44.867Z,100936.25
2022-09-16T23:14:15.203Z,100935.34
2022-09-16T23:16:44.127Z,100933.59
2022-09-16T23:19:12.668Z,100922.16
2022-09-16T23:21:43.630Z,100928.31
2022-09-16T23:24:16.252Z,100929.19
2022-09-16T23:26:45.497Z,100925.69
2022-09-16T23:29:15.523Z,100930.97
2022-09-16T23:31:45.045Z,100941.53
2022-09-16T23:34:21.119Z,100932.72
2022-09-16T23:36:50.273Z,100938.88
2022-09-16T23:39:19.103Z,100943.28
2022-09-16T23:41:48.811Z,100950.31
2022-09-16T23:44:20.339Z,100943.28
2022-09-16T23:46:48.710Z,100941.53
2022-09-16T23:49:19.356Z,100934.47
2022-09-16T23:51:48.077Z,100938.00
2022-09-16T23:54:19.735Z,100935.38
2022-09-16T23:56:48.081Z,100940.63
2022-09-16T23:59:16.427Z,100945.03
